sensor_id;sensor_type;location;lat;lon;timestamp;P1;durP1;ratioP1;P2;durP2;ratioP2
22068;SDS011;13887;57.196;-2.100;2023-04-03T00:01:10;12.40;;;12.00;;
22068;SDS011;13887;57.196;-2.100;2023-04-03T00:03:37;11.50;;;11.10;;
22068;SDS011;13887;57.196;-2.100;2023-04-03T00:06:05;11.87;;;11.47;;
22068;SDS011;13887;57.196;-2.100;2023-04-03T00:08:36;12.30;;;11.90;;
22068;SDS011;13887;57.196;-2.100;2023-04-03T00:11:03;11.93;;;11.53;;
22068;SDS011;13887;57.196;-2.100;2023-04-03T00:13:32;12.23;;;11.83;;
22068;SDS011;13887;57.196;-2.100;2023-04-03T00:15:59;12.20;;;11.80;;
22068;SDS011;13887;57.196;-2.100;2023-04-03T00:18:26;12.27;;;11.87;;
22068;SDS011;13887;57.196;-2.100;2023-04-03T00:20:53;11.93;;;11.53;;
22068;SDS011;13887;57.196;-2.100;2023-04-03T00:23:20;11.90;;;11.50;;
22068;SDS011;13887;57.196;-2.100;2023-04-03T00:25:50;12.43;;;12.03;;
22068;SDS011;13887;57.196;-2.100;2023-04-03T00:28:17;12.17;;;11.77;;
22068;SDS011;13887;57.196;-2.100;2023-04-03T00:30:44;12.50;;;12.10;;
22068;SDS011;13887;57.196;-2.100;2023-04-03T00:33:12;12.33;;;11.93;;
22068;SDS011;13887;57.196;-2.100;2023-04-03T00:35:40;12.27;;;11.87;;
22068;SDS011;13887;57.196;-2.100;2023-04-03T00:38:08;12.03;;;11.63;;
22068;SDS011;13887;57.196;-2.100;2023-04-03T00:40:36;12.03;;;11.63;;
22068;SDS011;13887;57.196;-2.100;2023-04-03T00:43:16;12.37;;;11.97;;
22068;SDS011;13887;57.196;-2.100;2023-04-03T00:45:51;11.90;;;11.50;;
22068;SDS011;13887;57.196;-2.100;2023-04-03T00:48:34;12.50;;;12.10;;
22068;SDS011;13887;57.196;-2.100;2023-04-03T00:51:13;12.43;;;12.03;;
22068;SDS011;13887;57.196;-2.100;2023-04-03T00:53:46;12.13;;;11.73;;
22068;SDS011;13887;57.196;-2.100;2023-04-03T00:56:21;12.50;;;12.10;;
22068;SDS011;13887;57.196;-2.100;2023-04-03T01:01:20;12.20;;;11.80;;
22068;SDS011;13887;57.196;-2.100;2023-04-03T01:03:50;12.03;;;11.63;;
22068;SDS011;13887;57.196;-2.100;2023-04-03T01:06:20;12.00;;;11.60;;
22068;SDS011;13887;57.196;-2.100;2023-04-03T01:08:51;12.43;;;12.03;;
22068;SDS011;13887;57.196;-2.100;2023-04-03T01:11:20;12.13;;;11.73;;
22068;SDS011;13887;57.196;-2.100;2023-04-03T01:13:48;12.23;;;11.83;;
22068;SDS011;13887;57.196;-2.100;2023-04-03T01:16:15;12.30;;;11.90;;
22068;SDS011;13887;57.196;-2.100;2023-04-03T01:18:43;12.30;;;11.90;;
22068;SDS011;13887;57.196;-2.100;2023-04-03T01:26:33;12.20;;;11.80;;
22068;SDS011;13887;57.196;-2.100;2023-04-03T01:29:00;12.50;;;12.10;;
22068;SDS011;13887;57.196;-2.100;2023-04-03T01:31:31;12.27;;;11.87;;
22068;SDS011;13887;57.196;-2.100;2023-04-03T01:34:01;12.33;;;11.93;;
22068;SDS011;13887;57.196;-2.100;2023-04-03T01:36:31;12.50;;;12.10;;
22068;SDS011;13887;57.196;-2.100;2023-04-03T01:38:58;12.60;;;12.20;;
22068;SDS011;13887;57.196;-2.100;2023-04-03T01:41:27;12.40;;;12.00;;
22068;SDS011;13887;57.196;-2.100;2023-04-03T01:44:02;11.80;;;11.40;;
22068;SDS011;13887;57.196;-2.100;2023-04-03T01:46:30;12.07;;;11.67;;
22068;SDS011;13887;57.196;-2.100;2023-04-03T01:48:57;11.60;;;11.20;;
22068;SDS011;13887;57.196;-2.100;2023-04-03T01:51:24;12.40;;;12.00;;
22068;SDS011;13887;57.196;-2.100;2023-04-03T01:53:51;12.63;;;12.23;;
22068;SDS011;13887;57.196;-2.100;2023-04-03T01:56:18;12.10;;;11.70;;
22068;SDS011;13887;57.196;-2.100;2023-04-03T01:58:47;12.17;;;11.77;;
22068;SDS011;13887;57.196;-2.100;2023-04-03T02:01:14;12.30;;;11.90;;
22068;SDS011;13887;57.196;-2.100;2023-04-03T02:03:41;12.37;;;11.97;;
22068;SDS011;13887;57.196;-2.100;2023-04-03T02:06:09;12.50;;;12.10;;
22068;SDS011;13887;57.196;-2.100;2023-04-03T02:08:38;12.60;;;12.20;;
22068;SDS011;13887;57.196;-2.100;2023-04-03T02:11:05;12.50;;;12.10;;
22068;SDS011;13887;57.196;-2.100;2023-04-03T02:13:32;12.30;;;11.90;;
22068;SDS011;13887;57.196;-2.100;2023-04-03T02:15:59;12.63;;;12.23;;
22068;SDS011;13887;57.196;-2.100;2023-04-03T02:18:32;12.60;;;12.20;;
22068;SDS011;13887;57.196;-2.100;2023-04-03T02:20:59;12.53;;;12.13;;
22068;SDS011;13887;57.196;-2.100;2023-04-03T02:23:26;12.13;;;11.73;;
22068;SDS011;13887;57.196;-2.100;2023-04-03T02:26:01;11.90;;;11.50;;
22068;SDS011;13887;57.196;-2.100;2023-04-03T02:28:29;12.47;;;12.07;;
22068;SDS011;13887;57.196;-2.100;2023-04-03T02:30:56;12.33;;;11.93;;
22068;SDS011;13887;57.196;-2.100;2023-04-03T02:33:23;12.30;;;11.90;;
22068;SDS011;13887;57.196;-2.100;2023-04-03T02:35:56;12.37;;;11.97;;
22068;SDS011;13887;57.196;-2.100;2023-04-03T02:38:24;12.30;;;11.90;;
22068;SDS011;13887;57.196;-2.100;2023-04-03T02:40:53;12.47;;;12.07;;
22068;SDS011;13887;57.196;-2.100;2023-04-03T02:43:20;12.40;;;12.00;;
22068;SDS011;13887;57.196;-2.100;2023-04-03T02:45:46;12.03;;;11.63;;
22068;SDS011;13887;57.196;-2.100;2023-04-03T02:48:14;12.47;;;12.07;;
22068;SDS011;13887;57.196;-2.100;2023-04-03T02:50:43;12.40;;;12.00;;
22068;SDS011;13887;57.196;-2.100;2023-04-03T02:53:10;11.93;;;11.53;;
22068;SDS011;13887;57.196;-2.100;2023-04-03T02:55:37;12.70;;;12.30;;
22068;SDS011;13887;57.196;-2.100;2023-04-03T02:58:04;12.23;;;11.83;;
22068;SDS011;13887;57.196;-2.100;2023-04-03T03:00:34;12.60;;;12.20;;
22068;SDS011;13887;57.196;-2.100;2023-04-03T03:03:02;12.80;;;12.40;;
22068;SDS011;13887;57.196;-2.100;2023-04-03T03:05:29;12.63;;;12.23;;
22068;SDS011;13887;57.196;-2.100;2023-04-03T03:07:56;12.80;;;12.40;;
22068;SDS011;13887;57.196;-2.100;2023-04-03T03:10:23;12.60;;;12.20;;
22068;SDS011;13887;57.196;-2.100;2023-04-03T03:12:50;12.83;;;12.43;;
22068;SDS011;13887;57.196;-2.100;2023-04-03T03:15:17;13.00;;;12.60;;
22068;SDS011;13887;57.196;-2.100;2023-04-03T03:17:47;13.10;;;12.70;;
22068;SDS011;13887;57.196;-2.100;2023-04-03T03:20:14;13.17;;;12.77;;
22068;SDS011;13887;57.196;-2.100;2023-04-03T03:22:41;12.97;;;12.57;;
22068;SDS011;13887;57.196;-2.100;2023-04-03T03:25:08;12.73;;;12.33;;
22068;SDS011;13887;57.196;-2.100;2023-04-03T03:27:35;12.70;;;12.30;;
22068;SDS011;13887;57.196;-2.100;2023-04-03T03:30:03;12.67;;;12.27;;
22068;SDS011;13887;57.196;-2.100;2023-04-03T03:32:31;13.13;;;12.70;;
22068;SDS011;13887;57.196;-2.100;2023-04-03T03:34:58;13.10;;;12.70;;
22068;SDS011;13887;57.196;-2.100;2023-04-03T03:37:25;12.87;;;12.47;;
22068;SDS011;13887;57.196;-2.100;2023-04-03T03:39:53;12.73;;;12.33;;
22068;SDS011;13887;57.196;-2.100;2023-04-03T03:42:20;12.87;;;12.47;;
22068;SDS011;13887;57.196;-2.100;2023-04-03T03:44:48;12.97;;;12.57;;
22068;SDS011;13887;57.196;-2.100;2023-04-03T03:47:15;13.40;;;12.90;;
22068;SDS011;13887;57.196;-2.100;2023-04-03T03:49:42;12.83;;;12.43;;
22068;SDS011;13887;57.196;-2.100;2023-04-03T03:52:09;12.60;;;12.20;;
22068;SDS011;13887;57.196;-2.100;2023-04-03T03:54:39;13.00;;;12.60;;
22068;SDS011;13887;57.196;-2.100;2023-04-03T03:57:06;18.77;;;17.87;;
22068;SDS011;13887;57.196;-2.100;2023-04-03T03:59:33;12.57;;;12.17;;
22068;SDS011;13887;57.196;-2.100;2023-04-03T04:02:00;12.87;;;12.47;;
22068;SDS011;13887;57.196;-2.100;2023-04-03T04:04:27;12.70;;;12.30;;
22068;SDS011;13887;57.196;-2.100;2023-04-03T04:06:55;12.73;;;12.33;;
22068;SDS011;13887;57.196;-2.100;2023-04-03T04:09:22;12.60;;;12.20;;
22068;SDS011;13887;57.196;-2.100;2023-04-03T04:11:49;12.50;;;12.10;;
22068;SDS011;13887;57.196;-2.100;2023-04-03T04:14:16;12.57;;;12.17;;
22068;SDS011;13887;57.196;-2.100;2023-04-03T04:16:44;12.80;;;12.40;;
22068;SDS011;13887;57.196;-2.100;2023-04-03T04:19:15;12.60;;;12.20;;
22068;SDS011;13887;57.196;-2.100;2023-04-03T04:21:43;12.73;;;12.33;;
22068;SDS011;13887;57.196;-2.100;2023-04-03T04:24:11;12.80;;;12.40;;
22068;SDS011;13887;57.196;-2.100;2023-04-03T04:26:38;12.60;;;12.20;;
22068;SDS011;13887;57.196;-2.100;2023-04-03T04:29:08;12.87;;;12.47;;
22068;SDS011;13887;57.196;-2.100;2023-04-03T04:31:36;12.50;;;12.10;;
22068;SDS011;13887;57.196;-2.100;2023-04-03T04:34:03;13.00;;;12.60;;
22068;SDS011;13887;57.196;-2.100;2023-04-03T04:36:31;12.93;;;12.53;;
22068;SDS011;13887;57.196;-2.100;2023-04-03T04:38:58;12.87;;;12.47;;
22068;SDS011;13887;57.196;-2.100;2023-04-03T04:41:26;13.07;;;12.67;;
22068;SDS011;13887;57.196;-2.100;2023-04-03T04:43:53;12.87;;;12.47;;
22068;SDS011;13887;57.196;-2.100;2023-04-03T04:46:21;13.00;;;12.60;;
22068;SDS011;13887;57.196;-2.100;2023-04-03T04:48:53;13.43;;;12.93;;
22068;SDS011;13887;57.196;-2.100;2023-04-03T04:51:21;12.97;;;12.57;;
22068;SDS011;13887;57.196;-2.100;2023-04-03T04:53:48;12.77;;;12.37;;
22068;SDS011;13887;57.196;-2.100;2023-04-03T04:56:17;13.03;;;12.63;;
22068;SDS011;13887;57.196;-2.100;2023-04-03T04:58:44;13.40;;;12.90;;
22068;SDS011;13887;57.196;-2.100;2023-04-03T05:01:12;13.30;;;12.80;;
22068;SDS011;13887;57.196;-2.100;2023-04-03T05:03:47;13.37;;;12.87;;
22068;SDS011;13887;57.196;-2.100;2023-04-03T05:06:16;13.37;;;12.87;;
22068;SDS011;13887;57.196;-2.100;2023-04-03T05:08:43;13.23;;;12.77;;
22068;SDS011;13887;57.196;-2.100;2023-04-03T05:11:10;13.80;;;13.30;;
22068;SDS011;13887;57.196;-2.100;2023-04-03T05:13:38;13.77;;;13.27;;
22068;SDS011;13887;57.196;-2.100;2023-04-03T05:16:05;13.80;;;13.30;;
22068;SDS011;13887;57.196;-2.100;2023-04-03T05:18:32;13.67;;;13.17;;
22068;SDS011;13887;57.196;-2.100;2023-04-03T05:21:04;13.77;;;13.27;;
22068;SDS011;13887;57.196;-2.100;2023-04-03T05:23:31;13.57;;;13.07;;
22068;SDS011;13887;57.196;-2.100;2023-04-03T05:26:01;13.83;;;13.33;;
22068;SDS011;13887;57.196;-2.100;2023-04-03T05:28:29;13.57;;;13.07;;
22068;SDS011;13887;57.196;-2.100;2023-04-03T05:30:57;13.33;;;12.87;;
22068;SDS011;13887;57.196;-2.100;2023-04-03T05:33:29;12.87;;;12.47;;
22068;SDS011;13887;57.196;-2.100;2023-04-03T05:36:02;13.50;;;13.00;;
22068;SDS011;13887;57.196;-2.100;2023-04-03T05:38:36;13.10;;;12.70;;
22068;SDS011;13887;57.196;-2.100;2023-04-03T05:41:04;13.17;;;12.77;;
22068;SDS011;13887;57.196;-2.100;2023-04-03T05:43:32;13.17;;;12.77;;
22068;SDS011;13887;57.196;-2.100;2023-04-03T05:46:01;12.97;;;12.57;;
22068;SDS011;13887;57.196;-2.100;2023-04-03T05:48:29;13.20;;;12.80;;
22068;SDS011;13887;57.196;-2.100;2023-04-03T05:50:56;13.40;;;12.90;;
22068;SDS011;13887;57.196;-2.100;2023-04-03T05:53:27;12.83;;;12.43;;
22068;SDS011;13887;57.196;-2.100;2023-04-03T05:55:59;12.93;;;12.53;;
22068;SDS011;13887;57.196;-2.100;2023-04-03T05:58:29;12.40;;;12.00;;
22068;SDS011;13887;57.196;-2.100;2023-04-03T06:00:57;12.73;;;12.33;;
22068;SDS011;13887;57.196;-2.100;2023-04-03T06:03:24;12.93;;;12.53;;
22068;SDS011;13887;57.196;-2.100;2023-04-03T06:05:52;13.10;;;12.70;;
22068;SDS011;13887;57.196;-2.100;2023-04-03T06:08:19;12.87;;;12.47;;
22068;SDS011;13887;57.196;-2.100;2023-04-03T06:10:47;12.90;;;12.50;;
22068;SDS011;13887;57.196;-2.100;2023-04-03T06:13:14;13.40;;;12.90;;
22068;SDS011;13887;57.196;-2.100;2023-04-03T06:15:41;13.27;;;12.80;;
22068;SDS011;13887;57.196;-2.100;2023-04-03T06:18:08;13.10;;;12.70;;
22068;SDS011;13887;57.196;-2.100;2023-04-03T06:20:35;13.03;;;12.63;;
22068;SDS011;13887;57.196;-2.100;2023-04-03T06:23:03;13.77;;;13.27;;
22068;SDS011;13887;57.196;-2.100;2023-04-03T06:25:32;13.67;;;13.17;;
22068;SDS011;13887;57.196;-2.100;2023-04-03T06:28:00;13.47;;;12.97;;
22068;SDS011;13887;57.196;-2.100;2023-04-03T06:30:27;13.83;;;13.33;;
22068;SDS011;13887;57.196;-2.100;2023-04-03T06:32:54;13.70;;;13.20;;
22068;SDS011;13887;57.196;-2.100;2023-04-03T06:35:22;13.37;;;12.87;;
22068;SDS011;13887;57.196;-2.100;2023-04-03T06:37:50;13.53;;;13.03;;
22068;SDS011;13887;57.196;-2.100;2023-04-03T06:40:18;13.87;;;13.37;;
22068;SDS011;13887;57.196;-2.100;2023-04-03T06:42:49;13.30;;;12.87;;
22068;SDS011;13887;57.196;-2.100;2023-04-03T06:45:18;13.70;;;13.20;;
22068;SDS011;13887;57.196;-2.100;2023-04-03T06:47:45;13.10;;;12.70;;
22068;SDS011;13887;57.196;-2.100;2023-04-03T06:50:12;13.40;;;12.90;;
22068;SDS011;13887;57.196;-2.100;2023-04-03T06:52:41;13.60;;;13.10;;
22068;SDS011;13887;57.196;-2.100;2023-04-03T06:55:08;12.53;;;12.13;;
22068;SDS011;13887;57.196;-2.100;2023-04-03T06:57:36;13.13;;;12.73;;
22068;SDS011;13887;57.196;-2.100;2023-04-03T07:00:04;13.60;;;13.10;;
22068;SDS011;13887;57.196;-2.100;2023-04-03T07:02:32;13.00;;;12.60;;
22068;SDS011;13887;57.196;-2.100;2023-04-03T07:04:59;12.80;;;12.40;;
22068;SDS011;13887;57.196;-2.100;2023-04-03T07:07:26;11.23;;;10.93;;
22068;SDS011;13887;57.196;-2.100;2023-04-03T07:09:53;12.63;;;12.23;;
22068;SDS011;13887;57.196;-2.100;2023-04-03T07:12:20;12.43;;;12.03;;
22068;SDS011;13887;57.196;-2.100;2023-04-03T07:14:47;12.43;;;12.03;;
22068;SDS011;13887;57.196;-2.100;2023-04-03T07:17:14;13.00;;;12.60;;
22068;SDS011;13887;57.196;-2.100;2023-04-03T07:19:41;12.77;;;12.37;;
22068;SDS011;13887;57.196;-2.100;2023-04-03T07:22:08;12.50;;;12.10;;
22068;SDS011;13887;57.196;-2.100;2023-04-03T07:24:35;12.43;;;12.03;;
22068;SDS011;13887;57.196;-2.100;2023-04-03T07:27:03;12.10;;;11.70;;
22068;SDS011;13887;57.196;-2.100;2023-04-03T07:29:30;12.20;;;11.80;;
22068;SDS011;13887;57.196;-2.100;2023-04-03T07:31:57;11.90;;;11.50;;
22068;SDS011;13887;57.196;-2.100;2023-04-03T07:34:24;11.73;;;11.33;;
22068;SDS011;13887;57.196;-2.100;2023-04-03T07:36:51;11.80;;;11.40;;
22068;SDS011;13887;57.196;-2.100;2023-04-03T07:39:18;12.30;;;11.90;;
22068;SDS011;13887;57.196;-2.100;2023-04-03T07:41:45;11.87;;;11.47;;
22068;SDS011;13887;57.196;-2.100;2023-04-03T07:44:12;12.00;;;11.60;;
22068;SDS011;13887;57.196;-2.100;2023-04-03T07:46:39;12.50;;;12.10;;
22068;SDS011;13887;57.196;-2.100;2023-04-03T07:49:07;12.07;;;11.67;;
22068;SDS011;13887;57.196;-2.100;2023-04-03T07:51:34;11.90;;;11.50;;
22068;SDS011;13887;57.196;-2.100;2023-04-03T07:54:01;11.90;;;11.50;;
22068;SDS011;13887;57.196;-2.100;2023-04-03T07:56:28;11.50;;;11.10;;
22068;SDS011;13887;57.196;-2.100;2023-04-03T07:58:55;11.60;;;11.20;;
22068;SDS011;13887;57.196;-2.100;2023-04-03T08:01:22;11.63;;;11.23;;
22068;SDS011;13887;57.196;-2.100;2023-04-03T08:03:49;11.80;;;11.40;;
22068;SDS011;13887;57.196;-2.100;2023-04-03T08:06:17;11.67;;;11.27;;
22068;SDS011;13887;57.196;-2.100;2023-04-03T08:08:58;11.80;;;11.40;;
22068;SDS011;13887;57.196;-2.100;2023-04-03T08:11:25;11.23;;;10.87;;
22068;SDS011;13887;57.196;-2.100;2023-04-03T08:13:54;11.80;;;11.40;;
22068;SDS011;13887;57.196;-2.100;2023-04-03T08:16:21;11.70;;;11.30;;
22068;SDS011;13887;57.196;-2.100;2023-04-03T08:18:50;11.53;;;11.13;;
22068;SDS011;13887;57.196;-2.100;2023-04-03T08:21:17;11.60;;;11.20;;
22068;SDS011;13887;57.196;-2.100;2023-04-03T08:23:44;11.80;;;11.40;;
22068;SDS011;13887;57.196;-2.100;2023-04-03T08:26:14;11.50;;;11.10;;
22068;SDS011;13887;57.196;-2.100;2023-04-03T08:28:42;12.27;;;11.87;;
22068;SDS011;13887;57.196;-2.100;2023-04-03T08:31:11;11.40;;;11.00;;
22068;SDS011;13887;57.196;-2.100;2023-04-03T08:33:40;11.63;;;11.23;;
22068;SDS011;13887;57.196;-2.100;2023-04-03T08:36:14;12.47;;;12.07;;
22068;SDS011;13887;57.196;-2.100;2023-04-03T08:38:47;12.23;;;11.83;;
22068;SDS011;13887;57.196;-2.100;2023-04-03T08:46:39;12.70;;;12.30;;
22068;SDS011;13887;57.196;-2.100;2023-04-03T08:49:18;12.37;;;11.97;;
22068;SDS011;13887;57.196;-2.100;2023-04-03T08:51:52;12.47;;;12.07;;
22068;SDS011;13887;57.196;-2.100;2023-04-03T08:54:25;12.70;;;12.30;;
22068;SDS011;13887;57.196;-2.100;2023-04-03T08:57:02;12.67;;;12.27;;
22068;SDS011;13887;57.196;-2.100;2023-04-03T08:59:33;13.03;;;12.63;;
22068;SDS011;13887;57.196;-2.100;2023-04-03T09:02:04;12.97;;;12.57;;
22068;SDS011;13887;57.196;-2.100;2023-04-03T09:04:49;13.17;;;12.77;;
22068;SDS011;13887;57.196;-2.100;2023-04-03T09:07:20;13.10;;;12.70;;
22068;SDS011;13887;57.196;-2.100;2023-04-03T09:09:59;13.50;;;13.00;;
22068;SDS011;13887;57.196;-2.100;2023-04-03T09:12:39;12.77;;;12.37;;
22068;SDS011;13887;57.196;-2.100;2023-04-03T09:18:19;12.10;;;11.70;;
22068;SDS011;13887;57.196;-2.100;2023-04-03T09:23:46;12.40;;;12.00;;
22068;SDS011;13887;57.196;-2.100;2023-04-03T09:26:17;13.10;;;12.70;;
22068;SDS011;13887;57.196;-2.100;2023-04-03T09:28:48;12.73;;;12.33;;
22068;SDS011;13887;57.196;-2.100;2023-04-03T09:34:08;13.30;;;12.80;;
22068;SDS011;13887;57.196;-2.100;2023-04-03T09:36:45;13.43;;;12.93;;
22068;SDS011;13887;57.196;-2.100;2023-04-03T09:39:15;12.97;;;12.57;;
22068;SDS011;13887;57.196;-2.100;2023-04-03T09:41:58;13.67;;;13.17;;
22068;SDS011;13887;57.196;-2.100;2023-04-03T09:44:36;13.63;;;13.13;;
22068;SDS011;13887;57.196;-2.100;2023-04-03T09:50:09;13.40;;;12.90;;
22068;SDS011;13887;57.196;-2.100;2023-04-03T09:52:40;14.03;;;13.53;;
22068;SDS011;13887;57.196;-2.100;2023-04-03T09:55:20;13.60;;;13.10;;
22068;SDS011;13887;57.196;-2.100;2023-04-03T09:57:54;14.47;;;13.97;;
22068;SDS011;13887;57.196;-2.100;2023-04-03T10:00:30;13.60;;;13.10;;
22068;SDS011;13887;57.196;-2.100;2023-04-03T10:03:03;13.67;;;13.17;;
22068;SDS011;13887;57.196;-2.100;2023-04-03T10:05:32;13.53;;;13.03;;
22068;SDS011;13887;57.196;-2.100;2023-04-03T10:10:42;12.80;;;12.40;;
22068;SDS011;13887;57.196;-2.100;2023-04-03T10:13:17;13.33;;;12.83;;
22068;SDS011;13887;57.196;-2.100;2023-04-03T10:15:54;13.40;;;12.90;;
22068;SDS011;13887;57.196;-2.100;2023-04-03T10:21:38;13.60;;;13.10;;
22068;SDS011;13887;57.196;-2.100;2023-04-03T10:24:14;13.90;;;13.40;;
22068;SDS011;13887;57.196;-2.100;2023-04-03T10:26:53;13.47;;;12.97;;
22068;SDS011;13887;57.196;-2.100;2023-04-03T10:29:36;13.90;;;13.40;;
22068;SDS011;13887;57.196;-2.100;2023-04-03T10:32:17;13.10;;;12.70;;
22068;SDS011;13887;57.196;-2.100;2023-04-03T10:35:01;13.03;;;12.63;;
22068;SDS011;13887;57.196;-2.100;2023-04-03T10:37:34;13.70;;;13.20;;
22068;SDS011;13887;57.196;-2.100;2023-04-03T10:48:35;13.63;;;13.13;;
22068;SDS011;13887;57.196;-2.100;2023-04-03T10:53:50;12.80;;;12.40;;
22068;SDS011;13887;57.196;-2.100;2023-04-03T10:56:37;13.80;;;13.30;;
22068;SDS011;13887;57.196;-2.100;2023-04-03T10:59:26;13.40;;;12.90;;
22068;SDS011;13887;57.196;-2.100;2023-04-03T11:02:00;12.90;;;12.50;;
22068;SDS011;13887;57.196;-2.100;2023-04-03T11:04:34;13.20;;;12.77;;
22068;SDS011;13887;57.196;-2.100;2023-04-03T11:07:08;13.10;;;12.70;;
22068;SDS011;13887;57.196;-2.100;2023-04-03T11:09:42;13.07;;;12.67;;
22068;SDS011;13887;57.196;-2.100;2023-04-03T11:12:17;13.27;;;12.83;;
22068;SDS011;13887;57.196;-2.100;2023-04-03T11:14:50;13.67;;;13.17;;
22068;SDS011;13887;57.196;-2.100;2023-04-03T11:22:23;13.63;;;13.13;;
22068;SDS011;13887;57.196;-2.100;2023-04-03T11:27:38;13.90;;;13.40;;
22068;SDS011;13887;57.196;-2.100;2023-04-03T11:30:14;13.80;;;13.30;;
22068;SDS011;13887;57.196;-2.100;2023-04-03T11:35:30;12.50;;;12.10;;
22068;SDS011;13887;57.196;-2.100;2023-04-03T11:38:00;12.40;;;12.00;;
22068;SDS011;13887;57.196;-2.100;2023-04-03T11:40:32;12.50;;;12.10;;
22068;SDS011;13887;57.196;-2.100;2023-04-03T11:46:03;12.33;;;11.93;;
22068;SDS011;13887;57.196;-2.100;2023-04-03T11:53:44;12.60;;;12.20;;
22068;SDS011;13887;57.196;-2.100;2023-04-03T12:01:46;12.23;;;11.83;;
22068;SDS011;13887;57.196;-2.100;2023-04-03T12:04:22;13.10;;;12.70;;
22068;SDS011;13887;57.196;-2.100;2023-04-03T12:12:29;12.73;;;12.33;;
22068;SDS011;13887;57.196;-2.100;2023-04-03T12:17:51;12.70;;;12.30;;
22068;SDS011;13887;57.196;-2.100;2023-04-03T12:21:04;12.90;;;12.50;;
22068;SDS011;13887;57.196;-2.100;2023-04-03T12:23:25;13.03;;;12.63;;
22068;SDS011;13887;57.196;-2.100;2023-04-03T12:26:21;12.77;;;12.37;;
22068;SDS011;13887;57.196;-2.100;2023-04-03T12:28:50;12.73;;;12.33;;
22068;SDS011;13887;57.196;-2.100;2023-04-03T12:31:19;12.80;;;12.40;;
22068;SDS011;13887;57.196;-2.100;2023-04-03T12:45:25;12.60;;;12.20;;
22068;SDS011;13887;57.196;-2.100;2023-04-03T12:47:54;12.93;;;12.53;;
22068;SDS011;13887;57.196;-2.100;2023-04-03T12:50:23;13.00;;;12.60;;
22068;SDS011;13887;57.196;-2.100;2023-04-03T12:55:28;13.33;;;12.90;;
22068;SDS011;13887;57.196;-2.100;2023-04-03T12:57:55;13.03;;;12.63;;
22068;SDS011;13887;57.196;-2.100;2023-04-03T13:00:30;13.00;;;12.60;;
22068;SDS011;13887;57.196;-2.100;2023-04-03T13:03:02;13.20;;;12.80;;
22068;SDS011;13887;57.196;-2.100;2023-04-03T13:05:32;12.70;;;12.30;;
22068;SDS011;13887;57.196;-2.100;2023-04-03T13:08:04;13.00;;;12.60;;
22068;SDS011;13887;57.196;-2.100;2023-04-03T13:10:41;12.63;;;12.23;;
22068;SDS011;13887;57.196;-2.100;2023-04-03T13:13:16;12.93;;;12.53;;
22068;SDS011;13887;57.196;-2.100;2023-04-03T13:15:46;13.20;;;12.80;;
22068;SDS011;13887;57.196;-2.100;2023-04-03T13:18:25;12.30;;;11.90;;
22068;SDS011;13887;57.196;-2.100;2023-04-03T13:21:06;12.90;;;12.50;;
22068;SDS011;13887;57.196;-2.100;2023-04-03T13:23:40;12.13;;;11.73;;
22068;SDS011;13887;57.196;-2.100;2023-04-03T13:26:14;12.70;;;12.30;;
22068;SDS011;13887;57.196;-2.100;2023-04-03T13:28:44;12.23;;;11.83;;
22068;SDS011;13887;57.196;-2.100;2023-04-03T13:36:24;13.03;;;12.63;;
22068;SDS011;13887;57.196;-2.100;2023-04-03T13:38:59;13.07;;;12.67;;
22068;SDS011;13887;57.196;-2.100;2023-04-03T13:41:46;13.13;;;12.73;;
22068;SDS011;13887;57.196;-2.100;2023-04-03T13:46:48;13.30;;;12.90;;
22068;SDS011;13887;57.196;-2.100;2023-04-03T13:49:17;13.07;;;12.67;;
22068;SDS011;13887;57.196;-2.100;2023-04-03T13:51:45;13.37;;;12.90;;
22068;SDS011;13887;57.196;-2.100;2023-04-03T13:54:29;12.70;;;12.30;;
22068;SDS011;13887;57.196;-2.100;2023-04-03T13:56:59;12.60;;;12.20;;
22068;SDS011;13887;57.196;-2.100;2023-04-03T13:59:31;13.20;;;12.80;;
22068;SDS011;13887;57.196;-2.100;2023-04-03T14:04:30;13.23;;;12.83;;
22068;SDS011;13887;57.196;-2.100;2023-04-03T14:06:59;13.40;;;13.00;;
22068;SDS011;13887;57.196;-2.100;2023-04-03T14:09:26;12.93;;;12.53;;
22068;SDS011;13887;57.196;-2.100;2023-04-03T14:11:56;13.20;;;12.80;;
22068;SDS011;13887;57.196;-2.100;2023-04-03T14:14:27;12.70;;;12.30;;
22068;SDS011;13887;57.196;-2.100;2023-04-03T14:17:00;12.97;;;12.57;;
22068;SDS011;13887;57.196;-2.100;2023-04-03T14:19:33;12.90;;;12.50;;
22068;SDS011;13887;57.196;-2.100;2023-04-03T14:22:10;13.27;;;12.87;;
22068;SDS011;13887;57.196;-2.100;2023-04-03T14:24:43;12.63;;;12.23;;
22068;SDS011;13887;57.196;-2.100;2023-04-03T14:29:45;13.57;;;13.07;;
22068;SDS011;13887;57.196;-2.100;2023-04-03T14:32:14;13.80;;;13.30;;
22068;SDS011;13887;57.196;-2.100;2023-04-03T14:34:43;13.80;;;13.30;;
22068;SDS011;13887;57.196;-2.100;2023-04-03T14:37:12;13.50;;;13.00;;
22068;SDS011;13887;57.196;-2.100;2023-04-03T14:39:42;13.67;;;13.17;;
22068;SDS011;13887;57.196;-2.100;2023-04-03T14:42:15;13.87;;;13.37;;
22068;SDS011;13887;57.196;-2.100;2023-04-03T14:44:44;13.10;;;12.70;;
22068;SDS011;13887;57.196;-2.100;2023-04-03T14:47:12;13.40;;;12.90;;
22068;SDS011;13887;57.196;-2.100;2023-04-03T14:49:57;13.63;;;13.13;;
22068;SDS011;13887;57.196;-2.100;2023-04-03T14:52:28;13.70;;;13.20;;
22068;SDS011;13887;57.196;-2.100;2023-04-03T14:54:58;13.20;;;12.80;;
22068;SDS011;13887;57.196;-2.100;2023-04-03T14:57:27;12.80;;;12.40;;
22068;SDS011;13887;57.196;-2.100;2023-04-03T14:59:55;13.30;;;12.80;;
22068;SDS011;13887;57.196;-2.100;2023-04-03T15:02:32;13.00;;;12.60;;
22068;SDS011;13887;57.196;-2.100;2023-04-03T15:05:02;13.40;;;12.90;;
22068;SDS011;13887;57.196;-2.100;2023-04-03T15:07:34;12.93;;;12.53;;
22068;SDS011;13887;57.196;-2.100;2023-04-03T15:10:09;13.50;;;13.00;;
22068;SDS011;13887;57.196;-2.100;2023-04-03T15:12:54;13.00;;;12.60;;
22068;SDS011;13887;57.196;-2.100;2023-04-03T15:15:22;13.07;;;12.67;;
22068;SDS011;13887;57.196;-2.100;2023-04-03T15:17:51;12.97;;;12.57;;
22068;SDS011;13887;57.196;-2.100;2023-04-03T15:20:25;12.97;;;12.57;;
22068;SDS011;13887;57.196;-2.100;2023-04-03T15:22:52;13.53;;;13.03;;
22068;SDS011;13887;57.196;-2.100;2023-04-03T15:25:23;13.00;;;12.60;;
22068;SDS011;13887;57.196;-2.100;2023-04-03T15:27:52;13.47;;;12.97;;
22068;SDS011;13887;57.196;-2.100;2023-04-03T15:30:20;12.63;;;12.23;;
22068;SDS011;13887;57.196;-2.100;2023-04-03T15:32:48;12.87;;;12.47;;
22068;SDS011;13887;57.196;-2.100;2023-04-03T15:35:15;12.90;;;12.50;;
22068;SDS011;13887;57.196;-2.100;2023-04-03T15:37:42;12.73;;;12.33;;
22068;SDS011;13887;57.196;-2.100;2023-04-03T15:40:09;13.17;;;12.77;;
22068;SDS011;13887;57.196;-2.100;2023-04-03T15:42:37;13.57;;;13.07;;
22068;SDS011;13887;57.196;-2.100;2023-04-03T15:45:04;13.50;;;13.00;;
22068;SDS011;13887;57.196;-2.100;2023-04-03T15:47:31;12.63;;;12.23;;
22068;SDS011;13887;57.196;-2.100;2023-04-03T15:49:58;12.27;;;11.87;;
22068;SDS011;13887;57.196;-2.100;2023-04-03T15:52:25;12.40;;;12.00;;
22068;SDS011;13887;57.196;-2.100;2023-04-03T15:54:52;12.40;;;12.00;;
22068;SDS011;13887;57.196;-2.100;2023-04-03T15:57:19;12.70;;;12.30;;
22068;SDS011;13887;57.196;-2.100;2023-04-03T15:59:46;12.30;;;11.90;;
22068;SDS011;13887;57.196;-2.100;2023-04-03T16:02:13;12.93;;;12.53;;
22068;SDS011;13887;57.196;-2.100;2023-04-03T16:04:41;13.10;;;12.70;;
22068;SDS011;13887;57.196;-2.100;2023-04-03T16:07:08;12.40;;;12.00;;